createdAt,value
2019-01-19T00:00:22.013Z,1015.84
2019-01-19T00:01:21.963Z,1015.83
2019-01-19T00:02:21.916Z,1015.79
2019-01-19T00:03:21.861Z,1015.76
2019-01-19T00:04:21.811Z,1015.76
2019-01-19T00:05:21.761Z,1015.79
2019-01-19T00:06:21.710Z,1015.82
2019-01-19T00:07:21.658Z,1015.76
2019-01-19T00:08:21.608Z,1015.78
2019-01-19T00:09:21.567Z,1015.78
2019-01-19T00:10:21.508Z,1015.80
2019-01-19T00:11:21.457Z,1015.81
2019-01-19T00:12:21.407Z,1015.80
2019-01-19T00:13:21.355Z,1015.84
2019-01-19T00:14:21.308Z,1015.82
2019-01-19T00:15:21.255Z,1015.85
2019-01-19T00:16:21.205Z,1015.88
2019-01-19T00:17:21.155Z,1015.81
2019-01-19T00:18:21.105Z,1015.82
2019-01-19T00:19:21.053Z,1015.82
2019-01-19T00:20:21.002Z,1015.82
2019-01-19T00:21:20.955Z,1015.84
2019-01-19T00:22:20.903Z,1015.79
2019-01-19T00:23:20.850Z,1015.81
2019-01-19T00:24:20.800Z,1015.79
2019-01-19T00:25:20.749Z,1015.76
2019-01-19T00:26:20.700Z,1015.79
2019-01-19T00:27:20.649Z,1015.79
2019-01-19T00:28:20.598Z,1015.74
2019-01-19T00:29:20.549Z,1015.78
2019-01-19T00:30:20.499Z,1015.77
2019-01-19T00:31:20.446Z,1015.80
2019-01-19T00:32:20.396Z,1015.79
2019-01-19T00:33:20.347Z,1015.81
2019-01-19T00:34:20.303Z,1015.79
2019-01-19T00:35:20.248Z,1015.80
2019-01-19T00:36:20.194Z,1015.76
2019-01-19T00:37:20.144Z,1015.82
2019-01-19T00:38:20.094Z,1015.78
2019-01-19T00:39:20.043Z,1015.78
2019-01-19T00:40:19.991Z,1015.79
2019-01-19T00:41:19.941Z,1015.75
2019-01-19T00:42:19.891Z,1015.78
2019-01-19T00:43:19.843Z,1015.77
2019-01-19T00:44:19.790Z,1015.75
2019-01-19T00:45:19.740Z,1015.74
2019-01-19T00:46:19.691Z,1015.77
2019-01-19T00:47:19.955Z,1015.77
2019-01-19T00:48:19.590Z,1015.77
2019-01-19T00:49:19.538Z,1015.71
2019-01-19T00:50:19.488Z,1015.73
2019-01-19T00:51:19.436Z,1015.73
2019-01-19T00:52:19.386Z,1015.77
2019-01-19T00:53:19.335Z,1015.77
2019-01-19T00:54:19.285Z,1015.78
2019-01-19T00:55:19.241Z,1015.76
2019-01-19T00:56:19.184Z,1015.78
2019-01-19T00:57:19.133Z,1015.78
2019-01-19T00:58:19.083Z,1015.76
2019-01-19T00:59:19.032Z,1015.78
2019-01-19T01:00:18.982Z,1015.80
2019-01-19T01:01:18.931Z,1015.74
2019-01-19T01:02:18.881Z,1015.77
2019-01-19T01:03:18.832Z,1015.77
2019-01-19T01:04:18.781Z,1015.70
2019-01-19T01:05:25.042Z,1015.76
2019-01-19T01:06:18.679Z,1015.71
2019-01-19T01:07:18.630Z,1015.74
2019-01-19T01:08:18.577Z,1015.76
2019-01-19T01:09:18.527Z,1015.72
2019-01-19T01:10:18.475Z,1015.77
2019-01-19T01:11:18.425Z,1015.81
2019-01-19T01:12:18.375Z,1015.82
2019-01-19T01:13:18.323Z,1015.84
2019-01-19T01:14:18.274Z,1015.79
2019-01-19T01:15:18.223Z,1015.82
2019-01-19T01:16:18.173Z,1015.81
2019-01-19T01:17:18.123Z,1015.80
2019-01-19T01:18:18.072Z,1015.82
2019-01-19T01:19:18.024Z,1015.82
2019-01-19T01:20:17.971Z,1015.82
2019-01-19T01:21:17.920Z,1015.82
2019-01-19T01:22:17.870Z,1015.82
2019-01-19T01:23:17.821Z,1015.83
2019-01-19T01:24:17.816Z,1015.86
2019-01-19T01:25:17.717Z,1015.79
2019-01-19T01:26:17.667Z,1015.83
2019-01-19T01:27:17.615Z,1015.80
2019-01-19T01:28:17.618Z,1015.80
2019-01-19T01:29:17.515Z,1015.80
2019-01-19T01:30:17.464Z,1015.83
2019-01-19T01:31:17.415Z,1015.82
2019-01-19T01:32:17.365Z,1015.80
2019-01-19T01:33:17.322Z,1015.83
2019-01-19T01:34:17.264Z,1015.84
2019-01-19T01:35:17.212Z,1015.86
2019-01-19T01:36:17.161Z,1015.87
2019-01-19T01:37:17.112Z,1015.89
2019-01-19T01:38:17.062Z,1015.89
2019-01-19T01:39:17.010Z,1015.89
2019-01-19T01:40:16.959Z,1015.84
2019-01-19T01:41:16.909Z,1015.86
2019-01-19T01:42:16.860Z,1015.86
2019-01-19T01:43:16.808Z,1015.84
2019-01-19T01:44:16.758Z,1015.85
2019-01-19T01:45:16.708Z,1015.85
2019-01-19T01:46:16.708Z,1015.86
2019-01-19T01:47:16.606Z,1015.86
2019-01-19T01:48:16.556Z,1015.86
2019-01-19T01:49:16.506Z,1015.84
2019-01-19T01:50:16.483Z,1015.84
2019-01-19T01:51:16.403Z,1015.85
2019-01-19T01:52:16.356Z,1015.83
2019-01-19T01:53:16.304Z,1015.82
2019-01-19T01:54:16.253Z,1015.79
2019-01-19T01:55:16.202Z,1015.81
2019-01-19T01:56:16.152Z,1015.79
2019-01-19T01:57:16.101Z,1015.81
2019-01-19T01:58:16.051Z,1015.82
2019-01-19T01:59:16.000Z,1015.82
2019-01-19T02:00:15.950Z,1015.84
2019-01-19T02:01:15.899Z,1015.80
2019-01-19T02:02:15.849Z,1015.80
2019-01-19T02:03:16.114Z,1015.79
2019-01-19T02:04:15.747Z,1015.83
2019-01-19T02:05:15.703Z,1015.80
2019-01-19T02:06:15.646Z,1015.77
2019-01-19T02:07:15.596Z,1015.77
2019-01-19T02:08:15.546Z,1015.82
2019-01-19T02:09:15.497Z,1015.83
2019-01-19T02:10:15.445Z,1015.82
2019-01-19T02:11:15.393Z,1015.78
2019-01-19T02:12:15.343Z,1015.79
2019-01-19T02:13:15.293Z,1015.80
2019-01-19T02:14:15.242Z,1015.74
2019-01-19T02:15:15.191Z,1015.77
2019-01-19T02:16:19.843Z,1015.78
2019-01-19T02:17:15.091Z,1015.76
2019-01-19T02:18:15.041Z,1015.75
2019-01-19T02:19:14.989Z,1015.72
2019-01-19T02:20:14.939Z,1015.71
2019-01-19T02:21:14.890Z,1015.72
2019-01-19T02:22:14.838Z,1015.72
2019-01-19T02:23:14.787Z,1015.70
2019-01-19T02:24:14.737Z,1015.69
2019-01-19T02:25:14.686Z,1015.72
2019-01-19T02:26:14.636Z,1015.66
2019-01-19T02:27:14.585Z,1015.71
2019-01-19T02:28:14.535Z,1015.72
2019-01-19T02:29:14.484Z,1015.72
2019-01-19T02:30:14.435Z,1015.75
2019-01-19T02:31:14.383Z,1015.73
2019-01-19T02:32:14.332Z,1015.71
2019-01-19T02:33:14.282Z,1015.75
2019-01-19T02:34:14.231Z,1015.70
2019-01-19T02:35:14.181Z,1015.71
2019-01-19T02:36:14.130Z,1015.74
2019-01-19T02:37:14.080Z,1015.70
2019-01-19T02:38:14.030Z,1015.72
2019-01-19T02:39:13.979Z,1015.72
2019-01-19T02:40:13.928Z,1015.73
2019-01-19T02:41:13.877Z,1015.73
2019-01-19T02:42:13.828Z,1015.72
2019-01-19T02:43:13.776Z,1015.70
2019-01-19T02:44:13.727Z,1015.74
2019-01-19T02:45:13.677Z,1015.72
2019-01-19T02:46:13.631Z,1015.75
2019-01-19T02:47:13.574Z,1015.73
2019-01-19T02:48:13.573Z,1015.75
2019-01-19T02:49:13.477Z,1015.75
2019-01-19T02:50:13.423Z,1015.75
2019-01-19T02:51:13.372Z,1015.75
2019-01-19T02:52:13.322Z,1015.76
2019-01-19T02:53:13.272Z,1015.78
2019-01-19T02:54:13.225Z,1015.73
2019-01-19T02:55:13.175Z,1015.71
2019-01-19T02:56:13.124Z,1015.72
2019-01-19T02:57:13.071Z,1015.72
2019-01-19T02:58:13.018Z,1015.73
2019-01-19T02:59:12.974Z,1015.69
2019-01-19T03:00:12.917Z,1015.72
2019-01-19T03:01:12.867Z,1015.73
2019-01-19T03:02:12.816Z,1015.74
2019-01-19T03:03:12.767Z,1015.71
2019-01-19T03:04:12.715Z,1015.70
2019-01-19T03:05:12.664Z,1015.71
2019-01-19T03:06:12.614Z,1015.70
2019-01-19T03:07:12.563Z,1015.71
2019-01-19T03:08:12.513Z,1015.71
2019-01-19T03:09:12.466Z,1015.70
2019-01-19T03:10:12.412Z,1015.70
2019-01-19T03:11:12.364Z,1015.66
2019-01-19T03:12:12.310Z,1015.70
2019-01-19T03:13:12.260Z,1015.64
2019-01-19T03:14:12.209Z,1015.67
2019-01-19T03:15:12.159Z,1015.65
2019-01-19T03:16:12.108Z,1015.63
2019-01-19T03:17:12.059Z,1015.61
2019-01-19T03:18:12.008Z,1015.65
2019-01-19T03:19:11.956Z,1015.60
2019-01-19T03:20:11.906Z,1015.63
2019-01-19T03:21:11.855Z,1015.60
2019-01-19T03:22:11.806Z,1015.62
2019-01-19T03:23:11.754Z,1015.63
2019-01-19T03:24:11.704Z,1015.66
2019-01-19T03:25:11.653Z,1015.68
2019-01-19T03:26:11.603Z,1015.63
2019-01-19T03:27:11.551Z,1015.65
2019-01-19T03:28:11.502Z,1015.65
2019-01-19T03:29:11.451Z,1015.63
2019-01-19T03:30:11.406Z,1015.68
2019-01-19T03:31:11.351Z,1015.61
2019-01-19T03:32:11.300Z,1015.61
2019-01-19T03:33:11.573Z,1015.65
2019-01-19T03:34:11.198Z,1015.67
2019-01-19T03:35:11.148Z,1015.64
2019-01-19T03:36:11.096Z,1015.63
2019-01-19T03:37:11.046Z,1015.65
2019-01-19T03:38:10.997Z,1015.66
2019-01-19T03:39:10.944Z,1015.65
2019-01-19T03:40:10.894Z,1015.61
2019-01-19T03:41:10.844Z,1015.63
2019-01-19T03:42:10.794Z,1015.63
2019-01-19T03:43:10.743Z,1015.67
2019-01-19T03:44:10.692Z,1015.62
2019-01-19T03:45:10.642Z,1015.67
2019-01-19T03:46:10.651Z,1015.62
2019-01-19T03:47:10.540Z,1015.63
2019-01-19T03:48:10.498Z,1015.65
2019-01-19T03:49:10.438Z,1015.61
2019-01-19T03:50:10.389Z,1015.64
2019-01-19T03:51:10.337Z,1015.64
2019-01-19T03:52:10.294Z,1015.67
2019-01-19T03:53:10.237Z,1015.69
2019-01-19T03:54:10.186Z,1015.66
2019-01-19T03:55:10.134Z,1015.67
2019-01-19T03:56:10.084Z,1015.67
2019-01-19T03:57:10.033Z,1015.68
2019-01-19T03:58:09.983Z,1015.67
2019-01-19T03:59:09.931Z,1015.62
2019-01-19T04:00:09.880Z,1015.67
2019-01-19T04:01:09.830Z,1015.64
2019-01-19T04:02:09.780Z,1015.66
2019-01-19T04:03:09.730Z,1015.60
2019-01-19T04:04:09.678Z,1015.64
2019-01-19T04:05:09.628Z,1015.62
2019-01-19T04:06:12.788Z,1015.64
2019-01-19T04:07:09.631Z,1015.70
2019-01-19T04:08:09.477Z,1015.69
2019-01-19T04:09:09.438Z,1015.72
2019-01-19T04:10:09.374Z,1015.74
2019-01-19T04:11:09.324Z,1015.72
2019-01-19T04:12:09.274Z,1015.72
2019-01-19T04:13:09.223Z,1015.75
2019-01-19T04:14:09.173Z,1015.70
2019-01-19T04:15:09.121Z,1015.74
2019-01-19T04:16:09.071Z,1015.75
2019-01-19T04:17:09.022Z,1015.76
2019-01-19T04:18:08.970Z,1015.75
2019-01-19T04:19:08.918Z,1015.74
2019-01-19T04:20:08.868Z,1015.72
2019-01-19T04:21:08.818Z,1015.70
2019-01-19T04:22:08.769Z,1015.73
2019-01-19T04:23:08.730Z,1015.75
2019-01-19T04:24:08.665Z,1015.70
2019-01-19T04:25:08.615Z,1015.75
2019-01-19T04:26:08.615Z,1015.74
2019-01-19T04:27:08.513Z,1015.73
2019-01-19T04:28:08.463Z,1015.72
2019-01-19T04:29:08.421Z,1015.74
2019-01-19T04:30:08.362Z,1015.68
2019-01-19T04:31:08.311Z,1015.69
2019-01-19T04:32:08.260Z,1015.67
2019-01-19T04:33:08.210Z,1015.69
2019-01-19T04:34:08.159Z,1015.67
2019-01-19T04:35:08.108Z,1015.68
2019-01-19T04:36:08.058Z,1015.66
2019-01-19T04:37:08.006Z,1015.62
2019-01-19T04:38:07.956Z,1015.67
2019-01-19T04:39:07.906Z,1015.68
2019-01-19T04:40:07.854Z,1015.68
2019-01-19T04:41:07.803Z,1015.67
2019-01-19T04:42:07.755Z,1015.69
2019-01-19T04:43:07.703Z,1015.69
2019-01-19T04:44:07.653Z,1015.69
2019-01-19T04:45:07.651Z,1015.70
2019-01-19T04:46:07.602Z,1015.68
2019-01-19T04:47:07.501Z,1015.73
2019-01-19T04:48:07.450Z,1015.73
2019-01-19T04:49:07.400Z,1015.75
2019-01-19T04:50:07.350Z,1015.76
2019-01-19T04:51:07.298Z,1015.79
2019-01-19T04:52:07.257Z,1015.76
2019-01-19T04:53:07.196Z,1015.77
2019-01-19T04:54:07.147Z,1015.73
2019-01-19T04:55:07.095Z,1015.78
2019-01-19T04:56:07.044Z,1015.76
2019-01-19T04:57:06.993Z,1015.73
2019-01-19T04:58:06.944Z,1015.73
2019-01-19T04:59:06.903Z,1015.70
2019-01-19T05:00:06.842Z,1015.73
2019-01-19T05:01:06.792Z,1015.72
2019-01-19T05:02:06.741Z,1015.72
2019-01-19T05:03:06.690Z,1015.70
2019-01-19T05:04:06.643Z,1015.66
2019-01-19T05:05:06.592Z,1015.68
2019-01-19T05:06:12.152Z,1015.67
2019-01-19T05:07:06.487Z,1015.65
2019-01-19T05:08:06.439Z,1015.65
2019-01-19T05:09:06.386Z,1015.68
2019-01-19T05:10:06.335Z,1015.64
2019-01-19T05:11:06.291Z,1015.66
2019-01-19T05:12:06.236Z,1015.65
2019-01-19T05:13:06.182Z,1015.64
2019-01-19T05:14:06.132Z,1015.60
2019-01-19T05:15:06.081Z,1015.58
2019-01-19T05:16:06.031Z,1015.59
2019-01-19T05:17:05.980Z,1015.59
2019-01-19T05:18:05.930Z,1015.59
2019-01-19T05:19:05.879Z,1015.58
2019-01-19T05:20:05.829Z,1015.64
2019-01-19T05:21:05.777Z,1015.62
2019-01-19T05:22:05.726Z,1015.60
2019-01-19T05:23:05.677Z,1015.60
2019-01-19T05:24:05.627Z,1015.63
2019-01-19T05:25:05.676Z,1015.60
2019-01-19T05:26:05.531Z,1015.59
2019-01-19T05:27:05.474Z,1015.64
2019-01-19T05:28:05.423Z,1015.60
2019-01-19T05:29:05.373Z,1015.61
2019-01-19T05:30:05.322Z,1015.67
2019-01-19T05:31:05.273Z,1015.66
2019-01-19T05:32:05.224Z,1015.65
2019-01-19T05:33:05.175Z,1015.67
2019-01-19T05:34:05.120Z,1015.69
2019-01-19T05:35:05.072Z,1015.67
2019-01-19T05:36:05.018Z,1015.64
2019-01-19T05:37:04.967Z,1015.66
2019-01-19T05:38:04.918Z,1015.63
2019-01-19T05:39:04.866Z,1015.68
2019-01-19T05:40:04.814Z,1015.65
2019-01-19T05:41:04.765Z,1015.63
2019-01-19T05:42:04.713Z,1015.66
2019-01-19T05:43:04.663Z,1015.64
2019-01-19T05:44:04.663Z,1015.62
2019-01-19T05:45:04.663Z,1015.60
2019-01-19T05:46:04.520Z,1015.62
2019-01-19T05:47:04.462Z,1015.58
2019-01-19T05:48:04.414Z,1015.62
2019-01-19T05:49:04.360Z,1015.60
2019-01-19T05:50:04.312Z,1015.62
2019-01-19T05:51:04.259Z,1015.60
2019-01-19T05:52:04.208Z,1015.64
2019-01-19T05:53:04.158Z,1015.67
2019-01-19T05:54:04.107Z,1015.65
2019-01-19T05:55:04.057Z,1015.67
2019-01-19T05:56:04.005Z,1015.66
2019-01-19T05:57:03.955Z,1015.66
2019-01-19T05:58:03.909Z,1015.68
2019-01-19T05:59:03.854Z,1015.67
2019-01-19T06:00:03.802Z,1015.67
2019-01-19T06:01:03.752Z,1015.69
2019-01-19T06:02:03.702Z,1015.71
2019-01-19T06:03:03.651Z,1015.69
2019-01-19T06:04:03.600Z,1015.71
2019-01-19T06:05:03.599Z,1015.69
2019-01-19T06:06:03.559Z,1015.71
2019-01-19T06:07:03.450Z,1015.69
2019-01-19T06:08:03.399Z,1015.70
2019-01-19T06:09:03.347Z,1015.70
2019-01-19T06:10:03.297Z,1015.73
2019-01-19T06:11:03.244Z,1015.69
2019-01-19T06:12:03.196Z,1015.72
2019-01-19T06:13:03.144Z,1015.75
2019-01-19T06:14:03.095Z,1015.74
2019-01-19T06:15:03.041Z,1015.74
2019-01-19T06:16:02.995Z,1015.71
2019-01-19T06:17:02.942Z,1015.76
2019-01-19T06:18:02.891Z,1015.76
2019-01-19T06:19:02.845Z,1015.71
2019-01-19T06:20:02.788Z,1015.73
2019-01-19T06:21:02.740Z,1015.73
2019-01-19T06:22:02.689Z,1015.73
2019-01-19T06:23:02.636Z,1015.73
2019-01-19T06:24:02.587Z,1015.75
2019-01-19T06:25:02.540Z,1015.71
2019-01-19T06:26:02.487Z,1015.73
2019-01-19T06:27:02.434Z,1015.70
2019-01-19T06:28:02.389Z,1015.75
2019-01-19T06:29:02.333Z,1015.69
2019-01-19T06:30:02.291Z,1015.72
2019-01-19T06:31:02.232Z,1015.75
2019-01-19T06:32:02.182Z,1015.75
2019-01-19T06:33:02.134Z,1015.73
2019-01-19T06:34:02.081Z,1015.78
2019-01-19T06:35:02.033Z,1015.77
2019-01-19T06:36:01.979Z,1015.75
2019-01-19T06:37:01.932Z,1015.76
2019-01-19T06:38:01.879Z,1015.79
2019-01-19T06:39:01.828Z,1015.75
2019-01-19T06:40:01.800Z,1015.79
2019-01-19T06:41:01.729Z,1015.83
2019-01-19T06:42:01.679Z,1015.81
2019-01-19T06:43:01.677Z,1015.81
2019-01-19T06:44:01.623Z,1015.81
2019-01-19T06:45:01.527Z,1015.81
2019-01-19T06:46:01.472Z,1015.79
2019-01-19T06:47:01.422Z,1015.82
2019-01-19T06:48:01.372Z,1015.85
2019-01-19T06:49:01.320Z,1015.81
2019-01-19T06:50:01.270Z,1015.85
2019-01-19T06:51:01.219Z,1015.83
2019-01-19T06:52:01.169Z,1015.88
2019-01-19T06:53:01.121Z,1015.83
2019-01-19T06:54:01.625Z,1015.83
2019-01-19T06:55:01.016Z,1015.84
2019-01-19T06:56:00.966Z,1015.83
2019-01-19T06:57:00.915Z,1015.84
2019-01-19T06:58:00.869Z,1015.83
2019-01-19T06:59:00.814Z,1015.86
2019-01-19T07:00:00.764Z,1015.87
2019-01-19T07:01:00.713Z,1015.87
2019-01-19T07:02:00.979Z,1015.89
2019-01-19T07:03:00.612Z,1015.89
2019-01-19T07:04:00.560Z,1015.88
2019-01-19T07:05:00.515Z,1015.90
2019-01-19T07:06:00.460Z,1015.87
2019-01-19T07:07:02.838Z,1015.89
2019-01-19T07:08:00.357Z,1015.88
2019-01-19T07:09:00.308Z,1015.87
2019-01-19T07:10:00.257Z,1015.88
2019-01-19T07:11:00.206Z,1015.92
2019-01-19T07:12:00.191Z,1015.91
2019-01-19T07:13:00.105Z,1015.89
2019-01-19T07:14:00.059Z,1015.92
2019-01-19T07:15:00.003Z,1015.91
2019-01-19T07:15:59.953Z,1015.95
2019-01-19T07:16:59.902Z,1015.94
2019-01-19T07:17:59.853Z,1015.97
2019-01-19T07:18:59.800Z,1015.94
2019-01-19T07:19:59.750Z,1015.97
2019-01-19T07:20:59.700Z,1015.97
2019-01-19T07:21:59.652Z,1015.94
2019-01-19T07:22:59.599Z,1015.97
2019-01-19T07:23:59.598Z,1015.98
2019-01-19T07:24:59.498Z,1015.96
2019-01-19T07:25:59.447Z,1015.97
2019-01-19T07:26:59.396Z,1015.98
2019-01-19T07:27:59.345Z,1016.03
2019-01-19T07:28:59.295Z,1016.03
2019-01-19T07:29:59.245Z,1016.04
2019-01-19T07:30:59.193Z,1016.04
2019-01-19T07:31:59.143Z,1016.05
2019-01-19T07:32:59.096Z,1016.07
2019-01-19T07:33:59.045Z,1016.08
2019-01-19T07:34:58.991Z,1016.08
2019-01-19T07:35:58.941Z,1016.10
2019-01-19T07:36:58.890Z,1016.13
2019-01-19T07:37:58.839Z,1016.11
2019-01-19T07:38:58.789Z,1016.12
2019-01-19T07:39:58.738Z,1016.13
2019-01-19T07:40:58.687Z,1016.13
2019-01-19T07:41:58.640Z,1016.15
2019-01-19T07:42:58.589Z,1016.16
2019-01-19T07:43:58.536Z,1016.14
2019-01-19T07:44:58.485Z,1016.16
2019-01-19T07:45:58.435Z,1016.18
2019-01-19T07:46:58.383Z,1016.19
2019-01-19T07:47:58.334Z,1016.19
2019-01-19T07:48:58.282Z,1016.11
2019-01-19T07:49:58.232Z,1016.18
2019-01-19T07:50:58.181Z,1016.22
2019-01-19T07:51:58.130Z,1016.18
2019-01-19T07:52:58.082Z,1016.19
2019-01-19T07:53:58.029Z,1016.20
2019-01-19T07:54:58.613Z,1016.23
2019-01-19T07:55:57.928Z,1016.26
2019-01-19T07:56:57.880Z,1016.24
2019-01-19T07:57:57.831Z,1016.28
2019-01-19T07:58:57.776Z,1016.23
2019-01-19T07:59:57.726Z,1016.29
2019-01-19T08:00:57.675Z,1016.30
2019-01-19T08:01:57.625Z,1016.26
2019-01-19T08:02:57.573Z,1016.26
2019-01-19T08:03:57.573Z,1016.26
2019-01-19T08:04:57.474Z,1016.28
2019-01-19T08:05:57.425Z,1016.30
2019-01-19T08:06:57.371Z,1016.27
2019-01-19T08:07:57.321Z,1016.29
2019-01-19T08:08:57.271Z,1016.28
2019-01-19T08:09:57.221Z,1016.32
2019-01-19T08:10:57.169Z,1016.31
2019-01-19T08:11:57.119Z,1016.32
2019-01-19T08:12:57.069Z,1016.31
2019-01-19T08:13:57.017Z,1016.30
2019-01-19T08:14:56.969Z,1016.32
2019-01-19T08:15:56.917Z,1016.33
2019-01-19T08:16:56.865Z,1016.34
2019-01-19T08:17:56.815Z,1016.33
2019-01-19T08:18:56.765Z,1016.33
2019-01-19T08:19:56.714Z,1016.37
2019-01-19T08:20:56.664Z,1016.37
2019-01-19T08:21:56.613Z,1016.33
2019-01-19T08:22:56.612Z,1016.35
2019-01-19T08:23:56.512Z,1016.37
2019-01-19T08:24:56.461Z,1016.38
2019-01-19T08:25:56.411Z,1016.38
2019-01-19T08:26:56.363Z,1016.40
2019-01-19T08:27:56.309Z,1016.37
2019-01-19T08:28:56.259Z,1016.34
2019-01-19T08:29:56.208Z,1016.37
2019-01-19T08:30:56.157Z,1016.35
2019-01-19T08:31:56.107Z,1016.39
2019-01-19T08:32:56.057Z,1016.39
2019-01-19T08:33:56.006Z,1016.45
2019-01-19T08:34:55.955Z,1016.45
2019-01-19T08:35:55.907Z,1016.45
2019-01-19T08:36:55.855Z,1016.46
2019-01-19T08:37:55.805Z,1016.44
2019-01-19T08:38:55.751Z,1016.46
2019-01-19T08:39:55.702Z,1016.45
2019-01-19T08:40:56.292Z,1016.43
2019-01-19T08:41:55.602Z,1016.42
2019-01-19T08:42:55.601Z,1016.48
2019-01-19T08:43:55.501Z,1016.47
2019-01-19T08:44:55.451Z,1016.45
2019-01-19T08:45:55.401Z,1016.48
2019-01-19T08:46:55.349Z,1016.48
2019-01-19T08:47:55.299Z,1016.49
2019-01-19T08:48:55.248Z,1016.48
2019-01-19T08:49:55.198Z,1016.48
2019-01-19T08:50:55.147Z,1016.49
2019-01-19T08:51:55.097Z,1016.53
2019-01-19T08:52:55.047Z,1016.52
2019-01-19T08:53:54.997Z,1016.52
2019-01-19T08:54:54.946Z,1016.53
2019-01-19T08:55:54.894Z,1016.54
2019-01-19T08:56:54.845Z,1016.53
2019-01-19T08:57:54.794Z,1016.53
2019-01-19T08:58:54.742Z,1016.50
2019-01-19T08:59:54.693Z,1016.50
2019-01-19T09:00:54.643Z,1016.51
2019-01-19T09:01:54.593Z,1016.53
2019-01-19T09:02:54.595Z,1016.54
2019-01-19T09:03:54.491Z,1016.55
2019-01-19T09:04:54.442Z,1016.51
2019-01-19T09:05:54.394Z,1016.57
2019-01-19T09:06:54.338Z,1016.59
2019-01-19T09:07:54.289Z,1016.59
2019-01-19T09:08:54.239Z,1016.56
2019-01-19T09:09:54.190Z,1016.55
2019-01-19T09:10:54.138Z,1016.56
2019-01-19T09:11:54.091Z,1016.56
2019-01-19T09:12:54.677Z,1016.55
2019-01-19T09:13:53.988Z,1016.55
2019-01-19T09:14:53.937Z,1016.53
2019-01-19T09:15:53.889Z,1016.52
2019-01-19T09:16:53.837Z,1016.54
2019-01-19T09:17:53.787Z,1016.49
2019-01-19T09:18:53.736Z,1016.51
2019-01-19T09:19:53.686Z,1016.48
2019-01-19T09:20:53.635Z,1016.46
2019-01-19T09:21:53.584Z,1016.50
2019-01-19T09:22:53.534Z,1016.46
2019-01-19T09:23:53.483Z,1016.49
2019-01-19T09:24:53.435Z,1016.50
2019-01-19T09:25:53.385Z,1016.50
2019-01-19T09:26:53.334Z,1016.51
2019-01-19T09:27:53.284Z,1016.51
2019-01-19T09:28:53.234Z,1016.53
2019-01-19T09:29:53.184Z,1016.49
2019-01-19T09:30:53.133Z,1016.50
2019-01-19T09:31:53.083Z,1016.52
2019-01-19T09:32:53.033Z,1016.50
2019-01-19T09:33:52.983Z,1016.50
2019-01-19T09:34:52.932Z,1016.46
2019-01-19T09:35:52.882Z,1016.44
2019-01-19T09:36:52.832Z,1016.46
2019-01-19T09:37:52.782Z,1016.49
2019-01-19T09:38:52.730Z,1016.45
2019-01-19T09:39:52.681Z,1016.48
2019-01-19T09:40:52.631Z,1016.51
2019-01-19T09:41:52.582Z,1016.47
2019-01-19T09:42:52.531Z,1016.49
2019-01-19T09:43:52.480Z,1016.47
2019-01-19T09:44:52.430Z,1016.49
2019-01-19T09:45:52.381Z,1016.48
2019-01-19T09:46:52.330Z,1016.52
2019-01-19T09:47:52.280Z,1016.48
2019-01-19T09:48:52.229Z,1016.46
2019-01-19T09:49:52.180Z,1016.48
2019-01-19T09:50:52.130Z,1016.45
2019-01-19T09:51:52.080Z,1016.44
2019-01-19T09:52:52.029Z,1016.41
2019-01-19T09:53:51.980Z,1016.40
2019-01-19T09:54:51.927Z,1016.36
2019-01-19T09:55:51.878Z,1016.39
2019-01-19T09:56:51.828Z,1016.39
2019-01-19T09:57:51.778Z,1016.39
2019-01-19T09:58:51.727Z,1016.41
2019-01-19T09:59:51.676Z,1016.40
2019-01-19T10:00:51.678Z,1016.41
2019-01-19T10:01:51.793Z,1016.41
2019-01-19T10:02:51.528Z,1016.40
2019-01-19T10:03:51.478Z,1016.43
2019-01-19T10:04:51.427Z,1016.44
2019-01-19T10:05:51.377Z,1016.41
2019-01-19T10:06:51.326Z,1016.45
2019-01-19T10:07:51.276Z,1016.42
2019-01-19T10:08:51.229Z,1016.46
2019-01-19T10:09:51.179Z,1016.46
2019-01-19T10:10:51.130Z,1016.46
2019-01-19T10:11:51.076Z,1016.45
2019-01-19T10:12:51.026Z,1016.49
2019-01-19T10:13:50.976Z,1016.42
2019-01-19T10:14:50.924Z,1016.43
2019-01-19T10:15:50.875Z,1016.45
2019-01-19T10:16:50.827Z,1016.44
2019-01-19T10:17:50.776Z,1016.41
2019-01-19T10:18:50.724Z,1016.40
2019-01-19T10:19:50.674Z,1016.40
2019-01-19T10:20:50.624Z,1016.44
2019-01-19T10:21:50.574Z,1016.45
2019-01-19T10:22:50.524Z,1016.46
2019-01-19T10:23:50.473Z,1016.47
2019-01-19T10:24:50.423Z,1016.48
2019-01-19T10:25:50.374Z,1016.48
2019-01-19T10:26:50.322Z,1016.42
2019-01-19T10:27:50.272Z,1016.40
2019-01-19T10:28:50.222Z,1016.44
2019-01-19T10:29:50.172Z,1016.44
2019-01-19T10:30:51.512Z,1016.44
2019-01-19T10:31:50.072Z,1016.43
2019-01-19T10:32:50.022Z,1016.41
2019-01-19T10:33:49.972Z,1016.42
2019-01-19T10:34:49.921Z,1016.42
2019-01-19T10:35:49.871Z,1016.41
2019-01-19T10:36:49.820Z,1016.41
2019-01-19T10:37:56.320Z,1016.42
2019-01-19T10:38:49.720Z,1016.40
2019-01-19T10:39:49.670Z,1016.38
2019-01-19T10:40:49.620Z,1016.36
2019-01-19T10:41:49.575Z,1016.38
2019-01-19T10:42:49.519Z,1016.35
2019-01-19T10:43:49.471Z,1016.34
2019-01-19T10:44:49.422Z,1016.31
2019-01-19T10:45:49.369Z,1016.28
2019-01-19T10:46:49.318Z,1016.28
2019-01-19T10:47:50.131Z,1016.27
2019-01-19T10:48:49.218Z,1016.30
2019-01-19T10:49:49.168Z,1016.29
2019-01-19T10:50:49.117Z,1016.27
2019-01-19T10:51:49.068Z,1016.27
2019-01-19T10:52:49.017Z,1016.27
2019-01-19T10:53:48.967Z,1016.30
2019-01-19T10:54:48.915Z,1016.32
2019-01-19T10:55:48.866Z,1016.29
2019-01-19T10:56:48.817Z,1016.23
2019-01-19T10:57:48.768Z,1016.25
2019-01-19T10:58:48.715Z,1016.30
2019-01-19T10:59:48.670Z,1016.23
2019-01-19T11:00:48.615Z,1016.26
2019-01-19T11:01:48.568Z,1016.23
2019-01-19T11:02:48.519Z,1016.21
2019-01-19T11:03:48.465Z,1016.21
2019-01-19T11:04:48.416Z,1016.22
2019-01-19T11:05:48.365Z,1016.18
2019-01-19T11:06:48.313Z,1016.19
2019-01-19T11:07:48.265Z,1016.19
2019-01-19T11:08:48.215Z,1016.16
2019-01-19T11:09:48.164Z,1016.16
2019-01-19T11:10:48.117Z,1016.17
2019-01-19T11:11:48.063Z,1016.15
2019-01-19T11:12:48.015Z,1016.12
2019-01-19T11:13:47.963Z,1016.11
2019-01-19T11:14:47.918Z,1016.10
2019-01-19T11:15:47.862Z,1016.07
2019-01-19T11:16:47.811Z,1016.07
2019-01-19T11:17:47.762Z,1016.05
2019-01-19T11:18:47.714Z,1016.07
2019-01-19T11:19:47.661Z,1016.12
2019-01-19T11:20:47.611Z,1016.06
2019-01-19T11:21:47.661Z,1016.09
2019-01-19T11:22:47.510Z,1016.07
2019-01-19T11:23:47.461Z,1016.05
2019-01-19T11:24:47.410Z,1016.05
2019-01-19T11:25:47.360Z,1016.06
2019-01-19T11:26:47.309Z,1016.03
2019-01-19T11:27:47.259Z,1016.03
2019-01-19T11:28:47.208Z,1016.01
2019-01-19T11:29:47.214Z,1016.03
2019-01-19T11:30:47.108Z,1016.02
2019-01-19T11:31:47.063Z,1015.98
2019-01-19T11:32:47.008Z,1016.02
2019-01-19T11:33:46.963Z,1015.97
2019-01-19T11:34:46.907Z,1015.96
2019-01-19T11:35:46.859Z,1015.94
2019-01-19T11:36:46.808Z,1015.89
2019-01-19T11:37:46.760Z,1015.91
2019-01-19T11:38:46.709Z,1015.92
2019-01-19T11:39:46.656Z,1015.89
2019-01-19T11:40:46.658Z,1015.90
2019-01-19T11:41:46.606Z,1015.86
2019-01-19T11:42:46.504Z,1015.85
2019-01-19T11:43:46.455Z,1015.81
2019-01-19T11:44:46.405Z,1015.81
2019-01-19T11:45:46.355Z,1015.82
2019-01-19T11:46:46.304Z,1015.81
2019-01-19T11:47:46.254Z,1015.80
2019-01-19T11:48:46.204Z,1015.77
2019-01-19T11:49:46.155Z,1015.76
2019-01-19T11:50:46.103Z,1015.75
2019-01-19T11:51:46.053Z,1015.72
2019-01-19T11:52:46.006Z,1015.71
2019-01-19T11:53:45.953Z,1015.71
2019-01-19T11:54:45.903Z,1015.73
2019-01-19T11:55:46.095Z,1015.71
2019-01-19T11:56:45.802Z,1015.70
2019-01-19T11:57:45.755Z,1015.70
2019-01-19T11:58:45.704Z,1015.70
2019-01-19T11:59:45.651Z,1015.70
2019-01-19T12:00:45.600Z,1015.66
2019-01-19T12:01:45.552Z,1015.68
2019-01-19T12:02:45.500Z,1015.66
2019-01-19T12:03:45.451Z,1015.66
2019-01-19T12:04:45.403Z,1015.66